Woodville, Illinois
Current Conditions -  °F | °C
As of 9:54 AM on Wednesday 22 Oct 2014 (Local Time) from KSET Reporting Station
Clear Clear  
Wind Chill: 50°   Ceiling: Unl
Heat Index: 50°   Visibility: 10mi
Dew Point: 42°   Wind: 8mph
Humidity: 74%   Direction: 120°ESE
Pressure: 30.33"   Gusts: NA
Location:  39.2901°N, 90.5384°W
Report Text: KSET 221454Z AUTO 12007KT 10SM CLR 10/06 A3033 RMK AO2 SLP271 T01000056 53010
Loading
Personal Weather Stations






























Interactive Weather Map
Tropical Storm Tracking
New forecast layout! Learn more

10-Day Weather Forecast

Advertisements
Track Severe Weather on mobile